Time;durP1;ratioP1;P1;durP2;ratioP2;P2;SDS_P1;SDS_P2;PMS_P1;PMS_P2;Temp;Humidity;BMP_temperature;BMP_pressure;BME280_temperature;BME280_humidity;BME280_pressure;Samples;Min_cycle;Max_cycle;Signal;HPM_P1;HPM_P2
2023/03/24 00:01:05;;;;;;;;;;;20.90;55.00;;;;;;4990586;28;19922;-76
2023/03/24 00:03:31;;;;;;;;;;;20.90;55.00;;;;;;4990576;28;19964;-77
2023/03/24 00:06:00;;;;;;;;;;;21.00;55.00;;;;;;4990812;28;20361;-77
2023/03/24 00:08:33;;;;;;;;;;;21.00;55.00;;;;;;4990641;28;19914;-77
2023/03/24 00:11:03;;;;;;;;;;;21.00;55.00;;;;;;4990478;28;19956;-78
2023/03/24 00:13:30;;;;;;;;;;;21.10;54.90;;;;;;5027170;28;20351;-77
2023/03/24 00:15:57;;;;;;;;;;;21.10;54.80;;;;;;5029736;28;19939;-77
2023/03/24 00:18:24;;;;;;;;;;;21.00;54.80;;;;;;5029735;28;19915;-77
2023/03/24 00:20:57;;;;;;;;;;;21.10;54.80;;;;;;5029632;28;19921;-77
2023/03/24 00:23:26;;;;;;;;;;;21.10;54.80;;;;;;5029718;28;19955;-77
2023/03/24 00:26:03;;;;;;;;;;;21.10;54.80;;;;;;5029430;28;20381;-77
2023/03/24 00:28:32;;;;;;;;;;;21.10;54.80;;;;;;5030997;28;19944;-77
2023/03/24 00:30:59;;;;;;;;;;;21.00;54.70;;;;;;5070736;28;19919;-77
2023/03/24 00:33:24;;;;;;;;;;;21.10;54.60;;;;;;5071768;28;20355;-77
2023/03/24 00:35:51;;;;;;;;;;;21.10;54.50;;;;;;5071821;28;19912;-77
2023/03/24 00:38:18;;;;;;;;;;;21.20;54.50;;;;;;5070388;28;20014;-77
2023/03/24 00:40:47;;;;;;;;;;;21.20;54.50;;;;;;5070475;28;19987;-77
2023/03/24 00:43:13;;;;;;;;;;;21.10;54.50;;;;;;5070772;28;19912;-77
2023/03/24 00:45:45;;;;;;;;;;;21.20;54.50;;;;;;5070388;28;19998;-77
2023/03/24 00:48:16;;;;;;;;;;;21.10;54.40;;;;;;5071918;28;19908;-77
2023/03/24 00:50:49;;;;;;;;;;;21.10;54.50;;;;;;5071729;28;19912;-77
2023/03/24 00:53:16;;;;;;;;;;;21.20;54.40;;;;;;5071473;28;19916;-77
2023/03/24 00:55:45;;;;;;;;;;;21.10;54.40;;;;;;5071586;28;20275;-77
2023/03/24 00:58:16;;;;;;;;;;;21.10;54.40;;;;;;5071787;28;19912;-77
2023/03/24 01:00:43;;;;;;;;;;;21.00;54.30;;;;;;5070092;28;20425;-77
2023/03/24 01:03:09;;;;;;;;;;;21.20;54.40;;;;;;5071681;28;19908;-76
2023/03/24 01:05:40;;;;;;;;;;;21.20;54.40;;;;;;5071417;28;19963;-76
2023/03/24 01:08:06;;;;;;;;;;;21.20;54.40;;;;;;5070228;28;20505;-77
2023/03/24 01:10:34;;;;;;;;;;;21.00;54.30;;;;;;5071738;28;20015;-77
2023/03/24 01:13:01;;;;;;;;;;;20.90;54.30;;;;;;5056506;28;20000;-77
2023/03/24 01:15:28;;;;;;;;;;;21.00;54.40;;;;;;5051211;28;19999;-77
2023/03/24 01:17:55;;;;;;;;;;;20.90;54.40;;;;;;5051471;28;20380;-77
2023/03/24 01:20:22;;;;;;;;;;;21.00;54.50;;;;;;5051234;28;20269;-77
2023/03/24 01:22:48;;;;;;;;;;;20.90;54.60;;;;;;5051445;28;19912;-77
2023/03/24 01:25:15;;;;;;;;;;;21.00;54.70;;;;;;5033476;28;19912;-76
2023/03/24 01:27:42;;;;;;;;;;;20.80;54.70;;;;;;5051164;28;20284;-77
2023/03/24 01:30:09;;;;;;;;;;;20.80;54.60;;;;;;5051458;28;19919;-77
2023/03/24 01:32:35;;;;;;;;;;;20.80;54.70;;;;;;5051101;28;19912;-77
2023/03/24 01:35:01;;;;;;;;;;;20.90;54.80;;;;;;5051042;28;19913;-77
2023/03/24 01:37:27;;;;;;;;;;;20.80;54.80;;;;;;5051228;28;19916;-77
2023/03/24 01:39:53;;;;;;;;;;;20.70;54.80;;;;;;5033288;28;20414;-77
2023/03/24 01:42:21;;;;;;;;;;;20.70;54.80;;;;;;5050963;28;19913;-77
2023/03/24 01:44:48;;;;;;;;;;;20.70;54.80;;;;;;5033296;28;19944;-77
2023/03/24 01:47:14;;;;;;;;;;;20.70;54.80;;;;;;5033400;28;20002;-76
2023/03/24 01:49:44;;;;;;;;;;;20.70;54.70;;;;;;5050849;28;19909;-76
2023/03/24 01:52:12;;;;;;;;;;;20.80;54.70;;;;;;5032287;28;19909;-76
2023/03/24 01:54:44;;;;;;;;;;;20.70;54.70;;;;;;5051055;28;19967;-77
2023/03/24 01:57:34;;;;;;;;;;;20.70;54.60;;;;;;5033357;28;19955;-76
2023/03/24 02:00:03;;;;;;;;;;;20.80;54.50;;;;;;5050789;28;20368;-77
2023/03/24 02:03:05;;;;;;;;;;;20.80;54.50;;;;;;5033075;28;19986;-76
2023/03/24 02:05:37;;;;;;;;;;;20.80;54.50;;;;;;5036636;28;19915;-77
2023/03/24 02:08:03;;;;;;;;;;;20.70;54.50;;;;;;5036881;28;19944;-77
2023/03/24 02:10:30;;;;;;;;;;;20.80;54.50;;;;;;5036631;28;19916;-77
2023/03/24 02:12:56;;;;;;;;;;;20.70;54.50;;;;;;5054594;28;19975;-77
2023/03/24 02:15:23;;;;;;;;;;;20.70;54.60;;;;;;5036586;28;19944;-76
2023/03/24 02:18:04;;;;;;;;;;;20.60;54.60;;;;;;5036553;28;20359;-77
2023/03/24 02:20:42;;;;;;;;;;;20.60;54.70;;;;;;5036454;28;19927;-77
2023/03/24 02:23:20;;;;;;;;;;;20.50;54.70;;;;;;5036598;28;19908;-77
2023/03/24 02:25:46;;;;;;;;;;;20.50;54.70;;;;;;5036329;28;19909;-77
2023/03/24 02:28:20;;;;;;;;;;;20.40;54.70;;;;;;5054189;28;19962;-77
2023/03/24 02:31:00;;;;;;;;;;;20.50;54.80;;;;;;5011889;28;20000;-77
2023/03/24 02:33:39;;;;;;;;;;;20.50;54.90;;;;;;4995872;28;20012;-77
2023/03/24 02:36:11;;;;;;;;;;;20.40;54.90;;;;;;5011845;28;19957;-77
2023/03/24 02:38:48;;;;;;;;;;;20.40;55.00;;;;;;4995637;28;19909;-77
2023/03/24 02:41:14;;;;;;;;;;;20.50;55.10;;;;;;4995266;28;19921;-76
2023/03/24 02:43:56;;;;;;;;;;;20.40;55.00;;;;;;4995577;28;20012;-76
2023/03/24 02:46:29;;;;;;;;;;;20.50;55.10;;;;;;4995175;28;19909;-77
2023/03/24 02:49:06;;;;;;;;;;;20.40;55.00;;;;;;5011683;28;19909;-76
2023/03/24 02:51:43;;;;;;;;;;;20.50;55.10;;;;;;4995173;28;19920;-77
2023/03/24 02:54:24;;;;;;;;;;;20.60;55.10;;;;;;4995418;28;19913;-77
2023/03/24 02:56:57;;;;;;;;;;;20.40;54.90;;;;;;4995170;28;19909;-77
2023/03/24 02:59:43;;;;;;;;;;;20.50;55.00;;;;;;5010243;28;19956;-77
2023/03/24 03:02:31;;;;;;;;;;;20.50;55.00;;;;;;5011463;28;19967;-77
2023/03/24 03:05:12;;;;;;;;;;;20.50;55.00;;;;;;4994898;28;20007;-77
2023/03/24 03:07:40;;;;;;;;;;;20.50;54.90;;;;;;5006097;28;20452;-77
2023/03/24 03:10:22;;;;;;;;;;;20.40;54.80;;;;;;5017767;28;19908;-77
2023/03/24 03:12:50;;;;;;;;;;;20.40;54.80;;;;;;5058255;28;20014;-77
2023/03/24 03:15:25;;;;;;;;;;;20.40;54.80;;;;;;5070963;28;19946;-76
2023/03/24 03:17:53;;;;;;;;;;;20.50;55.00;;;;;;5054403;28;19960;-76
2023/03/24 03:20:21;;;;;;;;;;;20.30;55.00;;;;;;5071684;28;20303;-77
2023/03/24 03:22:55;;;;;;;;;;;20.40;55.00;;;;;;5072089;28;19908;-77
2023/03/24 03:25:23;;;;;;;;;;;20.30;55.00;;;;;;5072784;28;20347;-77
2023/03/24 03:27:51;;;;;;;;;;;20.40;55.10;;;;;;5073249;28;19912;-76
2023/03/24 03:30:21;;;;;;;;;;;20.30;55.10;;;;;;5071799;28;19908;-77
2023/03/24 03:32:54;;;;;;;;;;;20.30;55.20;;;;;;5073031;28;19908;-77
2023/03/24 03:35:43;;;;;;;;;;;20.20;55.10;;;;;;5072698;28;19908;-75
2023/03/24 03:38:18;;;;;;;;;;;20.20;55.20;;;;;;5072854;28;19912;-77
2023/03/24 03:40:55;;;;;;;;;;;20.30;55.40;;;;;;5071415;28;19916;-76
2023/03/24 03:43:25;;;;;;;;;;;20.30;55.40;;;;;;5071522;28;19946;-77
2023/03/24 03:45:51;;;;;;;;;;;20.20;55.30;;;;;;5072516;28;19908;-76
2023/03/24 03:48:21;;;;;;;;;;;20.20;55.30;;;;;;5071368;28;20414;-77
2023/03/24 03:50:47;;;;;;;;;;;20.20;55.20;;;;;;5072605;28;19912;-77
2023/03/24 03:53:15;;;;;;;;;;;20.20;55.20;;;;;;5071389;28;20355;-77
2023/03/24 03:55:41;;;;;;;;;;;20.30;55.30;;;;;;5053499;28;20299;-77
2023/03/24 03:58:07;;;;;;;;;;;20.30;55.40;;;;;;5071233;28;20319;-77
2023/03/24 04:00:40;;;;;;;;;;;20.20;55.20;;;;;;5070958;28;20011;-77
2023/03/24 04:03:33;;;;;;;;;;;20.30;55.30;;;;;;5072151;28;20387;-77
2023/03/24 04:06:02;;;;;;;;;;;20.30;55.20;;;;;;5070691;28;19908;-77
2023/03/24 04:08:41;;;;;;;;;;;20.40;55.20;;;;;;5071109;28;20372;-77
2023/03/24 04:11:25;;;;;;;;;;;20.20;55.00;;;;;;5071915;28;20399;-77
2023/03/24 04:14:18;;;;;;;;;;;20.30;55.10;;;;;;5052161;28;20019;-77
2023/03/24 04:17:05;;;;;;;;;;;20.30;55.10;;;;;;5034773;28;19952;-77
2023/03/24 04:19:50;;;;;;;;;;;20.20;54.90;;;;;;5034051;28;20007;-77
2023/03/24 04:22:23;;;;;;;;;;;20.20;55.00;;;;;;5034138;28;19921;-77
2023/03/24 04:25:21;;;;;;;;;;;20.30;55.20;;;;;;5034092;28;19909;-77
2023/03/24 04:28:08;;;;;;;;;;;20.20;55.10;;;;;;4951061;28;20005;-77
2023/03/24 04:30:37;;;;;;;;;;;20.20;55.10;;;;;;4932484;29;19937;-76
2023/03/24 04:33:05;;;;;;;;;;;20.20;55.00;;;;;;4932126;29;20430;-76
2023/03/24 04:35:42;;;;;;;;;;;20.20;55.00;;;;;;4932189;29;19910;-77
2023/03/24 04:38:37;;;;;;;;;;;20.20;55.00;;;;;;4894449;29;19922;-77
2023/03/24 04:41:19;;;;;;;;;;;20.20;54.90;;;;;;4894677;29;20315;-77
2023/03/24 04:43:56;;;;;;;;;;;20.20;55.00;;;;;;4894298;29;19954;-77
2023/03/24 04:46:22;;;;;;;;;;;20.10;55.10;;;;;;4894079;29;19971;-77
2023/03/24 04:48:56;;;;;;;;;;;20.20;55.20;;;;;;4894238;29;20291;-77
2023/03/24 04:51:27;;;;;;;;;;;20.20;55.30;;;;;;4894161;29;20311;-77
2023/03/24 04:54:16;;;;;;;;;;;20.10;55.50;;;;;;4894032;29;19955;-76
2023/03/24 04:56:50;;;;;;;;;;;20.10;55.40;;;;;;4894668;29;19911;-77
2023/03/24 04:59:26;;;;;;;;;;;20.20;55.20;;;;;;4894305;29;20406;-76
2023/03/24 05:01:52;;;;;;;;;;;20.20;55.30;;;;;;4875214;29;20010;-77
2023/03/24 05:04:35;;;;;;;;;;;20.30;55.40;;;;;;4852111;29;19931;-76
2023/03/24 05:07:16;;;;;;;;;;;20.20;55.30;;;;;;4875222;29;19918;-76
2023/03/24 05:09:43;;;;;;;;;;;20.20;55.30;;;;;;4881541;29;19911;-76
2023/03/24 05:12:09;;;;;;;;;;;20.20;55.30;;;;;;4927677;29;20367;-76
2023/03/24 05:15:01;;;;;;;;;;;20.30;55.30;;;;;;4971065;28;19959;-76
2023/03/24 05:17:27;;;;;;;;;;;20.30;55.10;;;;;;5009160;28;19917;-76
2023/03/24 05:19:53;;;;;;;;;;;20.30;55.00;;;;;;5009013;28;20448;-77
2023/03/24 05:22:20;;;;;;;;;;;20.30;55.00;;;;;;5009381;28;20365;-76
2023/03/24 05:24:46;;;;;;;;;;;20.30;54.90;;;;;;5009306;28;20388;-76
2023/03/24 05:27:13;;;;;;;;;;;20.30;55.00;;;;;;5009065;28;20404;-76
2023/03/24 05:29:39;;;;;;;;;;;20.30;55.10;;;;;;5009210;28;19910;-76
2023/03/24 05:32:05;;;;;;;;;;;20.30;55.10;;;;;;5009137;28;20003;-76
2023/03/24 05:34:31;;;;;;;;;;;20.40;55.20;;;;;;5009154;28;20004;-76
2023/03/24 05:37:08;;;;;;;;;;;20.20;55.10;;;;;;5008990;28;19913;-76
2023/03/24 05:39:34;;;;;;;;;;;20.20;55.10;;;;;;5014675;28;19909;-76
2023/03/24 05:42:05;;;;;;;;;;;20.30;55.20;;;;;;5016137;28;19963;-76
2023/03/24 05:44:31;;;;;;;;;;;20.10;55.10;;;;;;5016079;28;19909;-76
2023/03/24 05:47:06;;;;;;;;;;;20.30;55.30;;;;;;5016041;28;20330;-76
2023/03/24 05:49:32;;;;;;;;;;;20.20;55.20;;;;;;5032725;28;19913;-76
2023/03/24 05:51:59;;;;;;;;;;;20.20;55.20;;;;;;5047656;28;19912;-76
2023/03/24 05:54:25;;;;;;;;;;;20.20;55.20;;;;;;5074737;28;20268;-76
2023/03/24 05:56:58;;;;;;;;;;;20.10;55.20;;;;;;5073367;28;19916;-76
2023/03/24 05:59:42;;;;;;;;;;;20.10;55.30;;;;;;5073689;28;19908;-77
2023/03/24 06:02:18;;;;;;;;;;;20.20;55.30;;;;;;5073708;28;19954;-76
2023/03/24 06:04:50;;;;;;;;;;;20.10;55.30;;;;;;5073474;28;20328;-77
2023/03/24 06:07:21;;;;;;;;;;;20.20;55.20;;;;;;5074554;28;19908;-77
2023/03/24 06:09:49;;;;;;;;;;;20.10;55.10;;;;;;5074727;28;19908;-76
2023/03/24 06:12:16;;;;;;;;;;;20.30;55.10;;;;;;5073148;28;19974;-76
2023/03/24 06:14:57;;;;;;;;;;;20.30;55.00;;;;;;5043475;28;20007;-77
2023/03/24 06:17:23;;;;;;;;;;;20.20;55.00;;;;;;5072910;28;20015;-76
2023/03/24 06:19:52;;;;;;;;;;;20.20;55.00;;;;;;5073135;28;19908;-77
2023/03/24 06:22:27;;;;;;;;;;;20.30;55.20;;;;;;5073034;28;19951;-76
2023/03/24 06:24:55;;;;;;;;;;;20.30;55.10;;;;;;5056713;28;19951;-76
2023/03/24 06:27:24;;;;;;;;;;;20.30;55.00;;;;;;5074044;28;19912;-76
2023/03/24 06:29:52;;;;;;;;;;;20.30;55.00;;;;;;5073010;28;19979;-76
2023/03/24 06:32:18;;;;;;;;;;;20.40;55.00;;;;;;5072850;28;19912;-76
2023/03/24 06:34:44;;;;;;;;;;;20.40;54.90;;;;;;5074174;28;19909;-76
2023/03/24 06:37:31;;;;;;;;;;;20.40;54.80;;;;;;5011595;28;19909;-76
2023/03/24 06:39:57;;;;;;;;;;;20.40;54.80;;;;;;4996141;28;19913;-76
2023/03/24 06:42:26;;;;;;;;;;;20.50;54.80;;;;;;4995415;28;19963;-76
2023/03/24 06:44:52;;;;;;;;;;;20.50;54.70;;;;;;4972687;28;20351;-76
2023/03/24 06:47:18;;;;;;;;;;;20.40;54.60;;;;;;4956414;28;19965;-76
2023/03/24 06:49:45;;;;;;;;;;;20.30;54.60;;;;;;4972409;28;19968;-76
2023/03/24 06:52:11;;;;;;;;;;;20.40;54.60;;;;;;4972768;28;19909;-76
2023/03/24 06:54:39;;;;;;;;;;;20.50;54.70;;;;;;4956468;28;19949;-76
2023/03/24 06:57:06;;;;;;;;;;;20.40;54.50;;;;;;4956234;28;20489;-76
2023/03/24 06:59:53;;;;;;;;;;;20.50;54.60;;;;;;4914954;29;19915;-76
2023/03/24 07:02:20;;;;;;;;;;;20.50;54.50;;;;;;4914828;29;20291;-76
2023/03/24 07:04:49;;;;;;;;;;;20.40;54.40;;;;;;4915492;29;20445;-76
2023/03/24 07:07:24;;;;;;;;;;;20.40;54.40;;;;;;4915181;29;19944;-76
2023/03/24 07:10:09;;;;;;;;;;;20.40;54.50;;;;;;4914825;29;19911;-76
2023/03/24 07:12:37;;;;;;;;;;;20.40;54.50;;;;;;4914635;29;19926;-76
2023/03/24 07:15:03;;;;;;;;;;;20.40;54.40;;;;;;4930871;28;19911;-76
2023/03/24 07:17:29;;;;;;;;;;;20.40;54.30;;;;;;4952713;29;20002;-76
2023/03/24 07:19:55;;;;;;;;;;;20.50;54.40;;;;;;4952694;28;20005;-76
2023/03/24 07:22:41;;;;;;;;;;;20.30;54.50;;;;;;4974682;28;19983;-76
2023/03/24 07:25:25;;;;;;;;;;;20.40;54.50;;;;;;5011194;28;19909;-76
2023/03/24 07:28:01;;;;;;;;;;;20.40;54.40;;;;;;4994507;28;19939;-76
2023/03/24 07:30:27;;;;;;;;;;;20.50;54.50;;;;;;4991249;28;20334;-76
2023/03/24 07:32:55;;;;;;;;;;;20.60;54.40;;;;;;4991384;28;20012;-76
2023/03/24 07:35:21;;;;;;;;;;;20.50;54.40;;;;;;4975111;28;19945;-76
2023/03/24 07:37:49;;;;;;;;;;;20.60;54.30;;;;;;5007287;28;19913;-76
2023/03/24 07:40:15;;;;;;;;;;;20.50;54.20;;;;;;5013967;28;20382;-76
2023/03/24 07:42:43;;;;;;;;;;;20.60;54.20;;;;;;5013948;28;20012;-76
2023/03/24 07:45:34;;;;;;;;;;;20.70;54.20;;;;;;5014048;28;19909;-76
2023/03/24 07:48:00;;;;;;;;;;;20.70;54.10;;;;;;5013723;28;19963;-76
2023/03/24 07:50:29;;;;;;;;;;;20.70;54.00;;;;;;5013762;28;19912;-76
2023/03/24 07:52:55;;;;;;;;;;;20.80;53.90;;;;;;5013775;28;19909;-76
2023/03/24 07:55:21;;;;;;;;;;;20.80;53.80;;;;;;5013702;28;19913;-76
2023/03/24 07:57:55;;;;;;;;;;;20.80;53.70;;;;;;5013629;28;19909;-76
2023/03/24 08:00:23;;;;;;;;;;;20.80;53.70;;;;;;5016318;28;19935;-76
2023/03/24 08:03:08;;;;;;;;;;;20.70;53.70;;;;;;5054005;28;20355;-76
2023/03/24 08:06:03;;;;;;;;;;;20.80;53.70;;;;;;5071834;28;19965;-76
2023/03/24 08:08:30;;;;;;;;;;;20.80;53.60;;;;;;5072021;28;19916;-76
2023/03/24 08:10:56;;;;;;;;;;;20.90;53.60;;;;;;5072682;28;20244;-77
2023/03/24 08:13:22;;;;;;;;;;;20.80;53.40;;;;;;5054264;28;19991;-77
2023/03/24 08:15:48;;;;;;;;;;;20.90;53.50;;;;;;5052360;28;20384;-76
2023/03/24 08:18:15;;;;;;;;;;;20.90;53.50;;;;;;5051911;28;20003;-76
2023/03/24 08:20:41;;;;;;;;;;;20.80;53.40;;;;;;5052060;28;19939;-76
2023/03/24 08:23:07;;;;;;;;;;;21.00;53.10;;;;;;5051965;28;19920;-76
2023/03/24 08:25:34;;;;;;;;;;;20.80;53.30;;;;;;5051923;28;19912;-77
2023/03/24 08:28:00;;;;;;;;;;;20.90;53.50;;;;;;5052008;28;19961;-77
2023/03/24 08:30:27;;;;;;;;;;;20.90;53.50;;;;;;5052094;28;20014;-76
2023/03/24 08:32:54;;;;;;;;;;;20.90;53.50;;;;;;5052057;28;20265;-76
2023/03/24 08:35:22;;;;;;;;;;;20.80;53.60;;;;;;5051838;28;19915;-75
2023/03/24 08:37:48;;;;;;;;;;;20.90;53.60;;;;;;5033992;28;19913;-76
2023/03/24 08:40:17;;;;;;;;;;;20.90;53.50;;;;;;5052198;28;20661;-76
2023/03/24 08:42:46;;;;;;;;;;;21.00;53.40;;;;;;5051827;28;19915;-75
2023/03/24 08:45:12;;;;;;;;;;;20.90;53.40;;;;;;5051681;28;19916;-76
2023/03/24 08:47:38;;;;;;;;;;;21.00;53.40;;;;;;5051520;28;19915;-76
2023/03/24 08:50:06;;;;;;;;;;;21.00;53.40;;;;;;5051730;28;19912;-76
2023/03/24 08:52:32;;;;;;;;;;;21.10;53.20;;;;;;5051719;28;19936;-76
2023/03/24 08:54:58;;;;;;;;;;;21.10;53.40;;;;;;5051876;28;19916;-76
2023/03/24 08:57:24;;;;;;;;;;;21.00;53.40;;;;;;5051537;28;20628;-76
2023/03/24 08:59:50;;;;;;;;;;;21.10;53.40;;;;;;5051741;28;19912;-76
2023/03/24 09:02:16;;;;;;;;;;;21.00;53.30;;;;;;5033431;28;19923;-76
2023/03/24 09:04:42;;;;;;;;;;;21.20;53.40;;;;;;5033597;28;19952;-76
2023/03/24 09:07:08;;;;;;;;;;;21.00;53.30;;;;;;5051247;28;19913;-77
2023/03/24 09:09:34;;;;;;;;;;;21.10;53.30;;;;;;5051387;28;20331;-76
2023/03/24 09:12:00;;;;;;;;;;;21.20;53.30;;;;;;5051515;28;19983;-76
2023/03/24 09:14:26;;;;;;;;;;;21.10;53.30;;;;;;5055477;28;20368;-76
2023/03/24 09:16:52;;;;;;;;;;;21.10;53.40;;;;;;5055669;28;19913;-77
2023/03/24 09:19:18;;;;;;;;;;;21.10;53.40;;;;;;5055323;28;20378;-76
2023/03/24 09:21:45;;;;;;;;;;;21.10;53.30;;;;;;5055464;28;19944;-76
2023/03/24 09:24:11;;;;;;;;;;;21.10;53.30;;;;;;5055760;28;19971;-76
2023/03/24 09:26:37;;;;;;;;;;;21.10;53.30;;;;;;5055555;28;19951;-76
2023/03/24 09:29:03;;;;;;;;;;;21.00;52.50;;;;;;5055173;28;19920;-76
2023/03/24 09:31:29;;;;;;;;;;;21.10;53.30;;;;;;5055471;28;20292;-76
2023/03/24 09:33:55;;;;;;;;;;;21.10;53.40;;;;;;5055000;28;19974;-76
2023/03/24 09:36:21;;;;;;;;;;;21.10;52.20;;;;;;5055576;28;19944;-76
2023/03/24 09:38:47;;;;;;;;;;;21.10;53.30;;;;;;5055243;28;19915;-76
2023/03/24 09:41:25;;;;;;;;;;;21.00;53.40;;;;;;5055103;28;20388;-76
2023/03/24 09:43:55;;;;;;;;;;;21.10;53.60;;;;;;5055096;28;19954;-76
2023/03/24 09:46:35;;;;;;;;;;;21.10;53.50;;;;;;5055067;28;19908;-76
2023/03/24 09:49:02;;;;;;;;;;;21.10;53.50;;;;;;5054977;28;19978;-76
2023/03/24 09:51:30;;;;;;;;;;;21.10;53.50;;;;;;5055184;28;19916;-76
2023/03/24 09:53:59;;;;;;;;;;;21.20;53.50;;;;;;5054916;28;19920;-76
2023/03/24 09:56:28;;;;;;;;;;;21.20;53.50;;;;;;5054792;28;19916;-77
2023/03/24 09:59:05;;;;;;;;;;;21.10;53.50;;;;;;5036949;28;19919;-76
2023/03/24 10:01:32;;;;;;;;;;;21.20;53.50;;;;;;5054658;28;19974;-77
2023/03/24 10:03:58;;;;;;;;;;;21.20;53.50;;;;;;5035941;28;19913;-76
2023/03/24 10:06:44;;;;;;;;;;;21.10;53.50;;;;;;5054654;28;19958;-76
2023/03/24 10:09:27;;;;;;;;;;;21.20;53.20;;;;;;5053783;28;19934;-77
2023/03/24 10:11:59;;;;;;;;;;;21.30;53.60;;;;;;5054454;28;19921;-76
2023/03/24 10:14:34;;;;;;;;;;;21.20;53.50;;;;;;5036648;28;19916;-76
2023/03/24 10:17:12;;;;;;;;;;;21.30;53.60;;;;;;5019226;28;19936;-76
2023/03/24 10:19:56;;;;;;;;;;;21.30;53.60;;;;;;5054218;28;19913;-76
2023/03/24 10:22:38;;;;;;;;;;;21.30;53.60;;;;;;5054622;28;19927;-76
2023/03/24 10:25:07;;;;;;;;;;;21.20;53.50;;;;;;5053431;28;19908;-77
2023/03/24 10:27:35;;;;;;;;;;;21.20;53.50;;;;;;5054199;28;19932;-76
2023/03/24 10:30:31;;;;;;;;;;;21.30;53.60;;;;;;5053966;28;19908;-76
2023/03/24 10:32:57;;;;;;;;;;;21.30;53.60;;;;;;4953711;29;19911;-76
2023/03/24 10:35:31;;;;;;;;;;;21.20;53.50;;;;;;4953791;29;19973;-76
2023/03/24 10:37:59;;;;;;;;;;;21.20;53.50;;;;;;4953526;29;19994;-77
2023/03/24 10:40:27;;;;;;;;;;;21.20;53.50;;;;;;4953638;29;19922;-76
2023/03/24 10:42:53;;;;;;;;;;;21.20;53.50;;;;;;4953528;29;19915;-76
2023/03/24 10:45:24;;;;;;;;;;;21.30;53.60;;;;;;4953638;29;19911;-76
2023/03/24 10:47:52;;;;;;;;;;;21.20;53.60;;;;;;4953603;29;20076;-77
2023/03/24 10:50:22;;;;;;;;;;;21.30;53.70;;;;;;4953295;29;19918;-76
2023/03/24 10:52:49;;;;;;;;;;;21.20;53.60;;;;;;4953522;29;20338;-76
2023/03/24 10:55:17;;;;;;;;;;;21.10;53.70;;;;;;4953219;29;19950;-76
2023/03/24 10:57:48;;;;;;;;;;;21.20;53.70;;;;;;4953347;29;20003;-77
2023/03/24 11:00:23;;;;;;;;;;;21.10;53.70;;;;;;4953013;29;19994;-76
2023/03/24 11:02:53;;;;;;;;;;;21.20;53.70;;;;;;4953140;29;20370;-77
2023/03/24 11:05:25;;;;;;;;;;;21.20;53.40;;;;;;4953164;29;19910;-77
2023/03/24 11:07:52;;;;;;;;;;;21.20;53.70;;;;;;4953185;29;19985;-77
2023/03/24 11:10:24;;;;;;;;;;;21.20;53.70;;;;;;5043447;28;19978;-76
2023/03/24 11:12:49;;;;;;;;;;;21.30;53.80;;;;;;5053476;28;19927;-76
2023/03/24 11:15:18;;;;;;;;;;;21.30;53.80;;;;;;5053409;28;19913;-76
2023/03/24 11:17:45;;;;;;;;;;;21.30;52.80;;;;;;5053447;28;19908;-76
2023/03/24 11:20:19;;;;;;;;;;;21.30;53.70;;;;;;5052975;28;19930;-76
2023/03/24 11:23:15;;;;;;;;;;;21.40;53.70;;;;;;5053320;28;20325;-76
2023/03/24 11:25:43;;;;;;;;;;;21.50;53.70;;;;;;4952927;29;19910;-76
2023/03/24 11:28:17;;;;;;;;;;;21.40;53.30;;;;;;4952822;29;19914;-77
2023/03/24 11:30:47;;;;;;;;;;;21.40;53.60;;;;;;4952607;29;19914;-76
2023/03/24 11:33:17;;;;;;;;;;;21.30;53.70;;;;;;4952770;29;20675;-77
2023/03/24 11:35:43;;;;;;;;;;;21.40;53.70;;;;;;4952071;28;19917;-76
2023/03/24 11:38:14;;;;;;;;;;;21.20;53.60;;;;;;4952197;29;19911;-76
2023/03/24 11:40:51;;;;;;;;;;;21.40;53.70;;;;;;4952484;29;19922;-76
2023/03/24 11:43:19;;;;;;;;;;;21.40;53.70;;;;;;4952621;29;20154;-76
2023/03/24 11:45:51;;;;;;;;;;;21.30;53.70;;;;;;4952412;29;19921;-76
2023/03/24 11:48:22;;;;;;;;;;;21.40;53.70;;;;;;4952367;29;19978;-76
2023/03/24 11:50:49;;;;;;;;;;;21.30;53.70;;;;;;4952269;29;19943;-76
2023/03/24 11:53:20;;;;;;;;;;;21.20;53.60;;;;;;4952492;29;19918;-76
2023/03/24 11:55:55;;;;;;;;;;;21.40;53.70;;;;;;4952111;29;19922;-76
2023/03/24 11:58:32;;;;;;;;;;;21.30;53.70;;;;;;4932822;29;19950;-77
2023/03/24 12:01:30;;;;;;;;;;;21.30;53.30;;;;;;4935352;28;20416;-76
2023/03/24 12:04:15;;;;;;;;;;;21.40;53.30;;;;;;4971236;28;19909;-76
2023/03/24 12:07:00;;;;;;;;;;;21.30;53.90;;;;;;4971875;28;20366;-77
2023/03/24 12:09:31;;;;;;;;;;;21.20;53.80;;;;;;4954955;28;19913;-77
2023/03/24 12:12:31;;;;;;;;;;;21.30;53.90;;;;;;4963360;28;19929;-77
2023/03/24 12:15:12;;;;;;;;;;;21.20;53.70;;;;;;4932752;29;19958;-77
2023/03/24 12:17:39;;;;;;;;;;;21.40;53.90;;;;;;4932712;29;20442;-77
2023/03/24 12:20:29;;;;;;;;;;;21.20;53.70;;;;;;4932296;29;19911;-77
2023/03/24 12:23:08;;;;;;;;;;;21.50;54.00;;;;;;4913369;29;19922;-77
2023/03/24 12:25:47;;;;;;;;;;;21.30;53.90;;;;;;4913578;29;20361;-77
2023/03/24 12:28:27;;;;;;;;;;;21.40;53.80;;;;;;4913978;29;19911;-77
2023/03/24 12:30:59;;;;;;;;;;;21.50;53.90;;;;;;4932260;29;19945;-77
2023/03/24 12:33:44;;;;;;;;;;;21.40;53.80;;;;;;4932435;29;20026;-77
2023/03/24 12:36:19;;;;;;;;;;;21.40;53.80;;;;;;4932360;29;20596;-77
2023/03/24 12:39:06;;;;;;;;;;;21.40;53.70;;;;;;4932216;29;19911;-77
2023/03/24 12:41:51;;;;;;;;;;;21.50;53.90;;;;;;4932244;29;20442;-77
2023/03/24 12:44:32;;;;;;;;;;;21.50;53.90;;;;;;4932279;29;19965;-76
2023/03/24 12:47:03;;;;;;;;;;;21.30;53.70;;;;;;4932110;29;19922;-77
2023/03/24 12:49:44;;;;;;;;;;;21.40;53.80;;;;;;4935706;28;19915;-76
2023/03/24 12:52:16;;;;;;;;;;;21.30;53.80;;;;;;4990086;28;19909;-77
2023/03/24 12:54:45;;;;;;;;;;;21.50;53.90;;;;;;4989999;28;20000;-77
2023/03/24 12:57:11;;;;;;;;;;;21.40;53.40;;;;;;4990073;28;19913;-76
2023/03/24 12:59:40;;;;;;;;;;;21.30;53.80;;;;;;5012810;28;20105;-77
2023/03/24 13:02:18;;;;;;;;;;;21.40;53.80;;;;;;5051463;28;19917;-77
2023/03/24 13:04:45;;;;;;;;;;;21.40;52.50;;;;;;5033702;28;19962;-77
2023/03/24 13:07:13;;;;;;;;;;;21.30;53.80;;;;;;5051682;28;20276;-77
2023/03/24 13:09:42;;;;;;;;;;;21.30;53.80;;;;;;5016787;28;20355;-77
2023/03/24 13:12:27;;;;;;;;;;;21.30;53.90;;;;;;5051338;28;19921;-77
2023/03/24 13:14:56;;;;;;;;;;;21.40;53.90;;;;;;5051117;28;19947;-76
2023/03/24 13:17:42;;;;;;;;;;;21.30;53.90;;;;;;5051400;28;19943;-77
2023/03/24 13:20:12;;;;;;;;;;;21.40;53.90;;;;;;5050513;28;19912;-77
2023/03/24 13:22:38;;;;;;;;;;;21.40;53.90;;;;;;5051266;28;19915;-76
2023/03/24 13:25:09;;;;;;;;;;;21.30;53.90;;;;;;5051072;28;19909;-76
2023/03/24 13:27:38;;;;;;;;;;;21.40;53.90;;;;;;5051304;28;19909;-76
2023/03/24 13:30:13;;;;;;;;;;;21.40;53.90;;;;;;5051041;28;19951;-76
2023/03/24 13:32:44;;;;;;;;;;;21.50;54.00;;;;;;5051145;28;19915;-76
2023/03/24 13:35:13;;;;;;;;;;;21.40;53.90;;;;;;5051168;28;20051;-76
2023/03/24 13:37:42;;;;;;;;;;;21.40;53.90;;;;;;5051057;28;19913;-77
2023/03/24 13:40:10;;;;;;;;;;;21.40;53.90;;;;;;5050845;28;19920;-77
2023/03/24 13:42:42;;;;;;;;;;;21.50;54.00;;;;;;5051044;28;20387;-77
2023/03/24 13:45:21;;;;;;;;;;;21.60;53.90;;;;;;5051251;28;19913;-77
2023/03/24 13:47:49;;;;;;;;;;;21.50;53.30;;;;;;5051260;28;19913;-76
2023/03/24 13:50:15;;;;;;;;;;;21.40;53.70;;;;;;5050788;28;20299;-77
2023/03/24 13:52:48;;;;;;;;;;;21.40;53.60;;;;;;5051226;28;19909;-77
2023/03/24 13:55:20;;;;;;;;;;;21.50;53.90;;;;;;5033255;28;19913;-76
2023/03/24 13:58:00;;;;;;;;;;;21.40;53.70;;;;;;5051288;28;19909;-76
2023/03/24 14:00:26;;;;;;;;;;;21.60;53.80;;;;;;5053009;28;19963;-77
2023/03/24 14:03:11;;;;;;;;;;;21.40;53.80;;;;;;5054645;28;20003;-77
2023/03/24 14:05:55;;;;;;;;;;;21.40;53.80;;;;;;5054817;28;19909;-77
2023/03/24 14:08:33;;;;;;;;;;;21.40;53.80;;;;;;5054553;28;19931;-76
2023/03/24 14:10:59;;;;;;;;;;;21.40;53.80;;;;;;5054840;28;19935;-76
2023/03/24 14:13:44;;;;;;;;;;;21.30;53.00;;;;;;5054366;28;19925;-77
2023/03/24 14:16:46;;;;;;;;;;;21.40;53.80;;;;;;5054599;28;19916;-77
2023/03/24 14:19:15;;;;;;;;;;;21.40;53.70;;;;;;4953906;29;19990;-77
2023/03/24 14:21:40;;;;;;;;;;;21.40;53.90;;;;;;4953928;29;20504;-76
2023/03/24 14:24:16;;;;;;;;;;;21.40;53.90;;;;;;4953809;29;20005;-76
2023/03/24 14:26:42;;;;;;;;;;;21.30;53.90;;;;;;4953781;29;19973;-76
2023/03/24 14:29:26;;;;;;;;;;;21.50;54.00;;;;;;4954008;29;19914;-76
2023/03/24 14:32:00;;;;;;;;;;;21.50;54.00;;;;;;4954026;29;19910;-76
2023/03/24 14:34:27;;;;;;;;;;;21.30;53.90;;;;;;4953885;29;19910;-76
2023/03/24 14:37:05;;;;;;;;;;;21.50;54.00;;;;;;4953893;29;19911;-76
2023/03/24 14:39:46;;;;;;;;;;;21.50;54.00;;;;;;4953626;29;19911;-76
2023/03/24 14:42:30;;;;;;;;;;;21.40;53.90;;;;;;4953482;29;19919;-76
2023/03/24 14:45:19;;;;;;;;;;;21.60;54.00;;;;;;4953580;29;20600;-77